sensor_id;sensor_type;location;lat;lon;timestamp;temperature;humidity
5118;DHT22;2578;51.622;7.046;2022-09-24T00:01:19;13.60;99.90
5118;DHT22;2578;51.622;7.046;2022-09-24T00:03:54;14.00;99.90
5118;DHT22;2578;51.622;7.046;2022-09-24T00:06:21;13.60;99.90
5118;DHT22;2578;51.622;7.046;2022-09-24T00:08:49;13.60;99.90
5118;DHT22;2578;51.622;7.046;2022-09-24T00:11:16;13.50;99.90
5118;DHT22;2578;51.622;7.046;2022-09-24T00:13:44;14.60;99.90
5118;DHT22;2578;51.622;7.046;2022-09-24T00:16:11;13.30;99.90
5118;DHT22;2578;51.622;7.046;2022-09-24T00:18:38;13.30;99.90
5118;DHT22;2578;51.622;7.046;2022-09-24T00:29:44;13.30;99.90
5118;DHT22;2578;51.622;7.046;2022-09-24T00:32:10;13.30;99.90
5118;DHT22;2578;51.622;7.046;2022-09-24T00:34:37;13.20;99.90
5118;DHT22;2578;51.622;7.046;2022-09-24T00:37:03;13.30;99.90
5118;DHT22;2578;51.622;7.046;2022-09-24T00:39:28;13.20;1.00
5118;DHT22;2578;51.622;7.046;2022-09-24T00:41:54;13.20;1.00
5118;DHT22;2578;51.622;7.046;2022-09-24T00:47:19;13.10;1.00
5118;DHT22;2578;51.622;7.046;2022-09-24T00:49:48;13.10;1.00
5118;DHT22;2578;51.622;7.046;2022-09-24T00:52:15;13.10;1.00
5118;DHT22;2578;51.622;7.046;2022-09-24T00:54:41;13.10;1.00
5118;DHT22;2578;51.622;7.046;2022-09-24T00:57:10;13.10;1.00
5118;DHT22;2578;51.622;7.046;2022-09-24T00:59:36;13.10;1.00
5118;DHT22;2578;51.622;7.046;2022-09-24T01:02:02;13.20;1.00
5118;DHT22;2578;51.622;7.046;2022-09-24T01:04:29;13.20;1.00
5118;DHT22;2578;51.622;7.046;2022-09-24T01:06:55;13.20;1.00
5118;DHT22;2578;51.622;7.046;2022-09-24T01:09:22;13.10;1.00
5118;DHT22;2578;51.622;7.046;2022-09-24T01:14:45;13.10;1.00
5118;DHT22;2578;51.622;7.046;2022-09-24T01:22:46;13.10;1.00
5118;DHT22;2578;51.622;7.046;2022-09-24T01:31:10;13.10;1.00
5118;DHT22;2578;51.622;7.046;2022-09-24T01:33:41;13.10;1.00
5118;DHT22;2578;51.622;7.046;2022-09-24T01:36:08;13.20;1.00
5118;DHT22;2578;51.622;7.046;2022-09-24T01:38:40;13.10;1.00
5118;DHT22;2578;51.622;7.046;2022-09-24T01:41:10;13.10;1.00
5118;DHT22;2578;51.622;7.046;2022-09-24T01:43:36;13.10;1.00
5118;DHT22;2578;51.622;7.046;2022-09-24T01:46:04;13.00;1.00
5118;DHT22;2578;51.622;7.046;2022-09-24T01:48:32;13.10;1.00
5118;DHT22;2578;51.622;7.046;2022-09-24T01:51:12;13.10;1.00
5118;DHT22;2578;51.622;7.046;2022-09-24T01:53:49;13.10;1.00
5118;DHT22;2578;51.622;7.046;2022-09-24T01:56:25;13.30;1.00
5118;DHT22;2578;51.622;7.046;2022-09-24T01:59:22;13.30;1.00
5118;DHT22;2578;51.622;7.046;2022-09-24T02:02:03;13.30;1.00
5118;DHT22;2578;51.622;7.046;2022-09-24T02:04:31;13.30;1.00
5118;DHT22;2578;51.622;7.046;2022-09-24T02:07:03;13.30;1.00
5118;DHT22;2578;51.622;7.046;2022-09-24T02:09:37;13.30;1.00
5118;DHT22;2578;51.622;7.046;2022-09-24T02:12:11;13.30;1.00
5118;DHT22;2578;51.622;7.046;2022-09-24T02:14:49;13.30;1.00
5118;DHT22;2578;51.622;7.046;2022-09-24T02:17:16;13.20;1.00
5118;DHT22;2578;51.622;7.046;2022-09-24T02:19:43;13.40;1.00
5118;DHT22;2578;51.622;7.046;2022-09-24T02:22:11;13.30;1.00
5118;DHT22;2578;51.622;7.046;2022-09-24T02:24:50;13.30;1.00
5118;DHT22;2578;51.622;7.046;2022-09-24T02:27:18;13.20;1.00
5118;DHT22;2578;51.622;7.046;2022-09-24T02:29:44;13.10;1.00
5118;DHT22;2578;51.622;7.046;2022-09-24T02:32:13;13.10;1.00
5118;DHT22;2578;51.622;7.046;2022-09-24T02:34:44;13.10;1.00
5118;DHT22;2578;51.622;7.046;2022-09-24T02:37:15;13.10;1.00
5118;DHT22;2578;51.622;7.046;2022-09-24T02:39:41;13.10;21.70
5118;DHT22;2578;51.622;7.046;2022-09-24T02:42:09;13.00;49.10
5118;DHT22;2578;51.622;7.046;2022-09-24T02:44:36;13.00;67.40
5118;DHT22;2578;51.622;7.046;2022-09-24T02:47:02;13.80;94.80
5118;DHT22;2578;51.622;7.046;2022-09-24T02:49:28;13.00;99.90
5118;DHT22;2578;51.622;7.046;2022-09-24T02:51:54;12.90;99.90
5118;DHT22;2578;51.622;7.046;2022-09-24T02:54:20;12.90;99.90
5118;DHT22;2578;51.622;7.046;2022-09-24T02:56:46;13.50;99.90
5118;DHT22;2578;51.622;7.046;2022-09-24T02:59:12;12.90;99.90
5118;DHT22;2578;51.622;7.046;2022-09-24T03:01:38;12.80;99.90
5118;DHT22;2578;51.622;7.046;2022-09-24T03:04:05;13.00;99.90
5118;DHT22;2578;51.622;7.046;2022-09-24T03:06:30;12.90;99.90
5118;DHT22;2578;51.622;7.046;2022-09-24T03:08:56;12.80;1.00
5118;DHT22;2578;51.622;7.046;2022-09-24T03:11:22;12.80;1.00
5118;DHT22;2578;51.622;7.046;2022-09-24T03:13:48;12.80;1.00
5118;DHT22;2578;51.622;7.046;2022-09-24T03:16:15;14.30;1.00
5118;DHT22;2578;51.622;7.046;2022-09-24T03:18:41;12.70;1.00
5118;DHT22;2578;51.622;7.046;2022-09-24T03:21:10;12.80;1.00
5118;DHT22;2578;51.622;7.046;2022-09-24T03:23:36;12.60;1.00
5118;DHT22;2578;51.622;7.046;2022-09-24T03:26:02;12.70;1.00
5118;DHT22;2578;51.622;7.046;2022-09-24T03:28:27;12.80;1.00
5118;DHT22;2578;51.622;7.046;2022-09-24T03:30:53;12.90;1.00
5118;DHT22;2578;51.622;7.046;2022-09-24T03:35:58;13.10;1.00
5118;DHT22;2578;51.622;7.046;2022-09-24T03:38:25;12.80;1.00
5118;DHT22;2578;51.622;7.046;2022-09-24T03:40:57;12.80;1.00
5118;DHT22;2578;51.622;7.046;2022-09-24T03:43:24;14.50;14.30
5118;DHT22;2578;51.622;7.046;2022-09-24T03:45:50;12.90;50.30
5118;DHT22;2578;51.622;7.046;2022-09-24T03:48:17;12.90;50.30
5118;DHT22;2578;51.622;7.046;2022-09-24T03:50:42;13.00;31.10
5118;DHT22;2578;51.622;7.046;2022-09-24T03:53:08;13.00;19.10
5118;DHT22;2578;51.622;7.046;2022-09-24T03:55:34;13.00;15.30
5118;DHT22;2578;51.622;7.046;2022-09-24T03:58:01;12.90;1.00
5118;DHT22;2578;51.622;7.046;2022-09-24T04:00:26;12.90;1.00
5118;DHT22;2578;51.622;7.046;2022-09-24T04:02:52;12.90;15.50
5118;DHT22;2578;51.622;7.046;2022-09-24T04:05:18;13.20;26.80
5118;DHT22;2578;51.622;7.046;2022-09-24T04:07:44;12.90;31.20
5118;DHT22;2578;51.622;7.046;2022-09-24T04:10:10;13.10;29.80
5118;DHT22;2578;51.622;7.046;2022-09-24T04:12:36;12.80;13.40
5118;DHT22;2578;51.622;7.046;2022-09-24T04:15:02;12.70;22.90
5118;DHT22;2578;51.622;7.046;2022-09-24T04:17:28;12.70;45.10
5118;DHT22;2578;51.622;7.046;2022-09-24T04:19:57;12.80;99.90
5118;DHT22;2578;51.622;7.046;2022-09-24T04:22:23;12.90;99.90
5118;DHT22;2578;51.622;7.046;2022-09-24T04:27:17;12.90;99.90
5118;DHT22;2578;51.622;7.046;2022-09-24T04:29:42;13.10;99.90
5118;DHT22;2578;51.622;7.046;2022-09-24T04:32:08;12.90;99.90
5118;DHT22;2578;51.622;7.046;2022-09-24T04:34:33;12.90;99.90
5118;DHT22;2578;51.622;7.046;2022-09-24T04:36:59;13.80;99.90
5118;DHT22;2578;51.622;7.046;2022-09-24T04:39:25;12.90;99.90
5118;DHT22;2578;51.622;7.046;2022-09-24T04:41:51;12.90;99.90
5118;DHT22;2578;51.622;7.046;2022-09-24T04:44:17;12.90;99.90
5118;DHT22;2578;51.622;7.046;2022-09-24T04:46:42;12.80;97.10
5118;DHT22;2578;51.622;7.046;2022-09-24T04:49:08;12.80;97.00
5118;DHT22;2578;51.622;7.046;2022-09-24T04:51:34;12.80;99.90
5118;DHT22;2578;51.622;7.046;2022-09-24T04:54:01;12.70;99.90
5118;DHT22;2578;51.622;7.046;2022-09-24T04:56:29;12.70;99.90
5118;DHT22;2578;51.622;7.046;2022-09-24T04:58:56;13.00;99.90
5118;DHT22;2578;51.622;7.046;2022-09-24T05:01:22;12.70;99.90
5118;DHT22;2578;51.622;7.046;2022-09-24T05:03:48;12.70;99.90
5118;DHT22;2578;51.622;7.046;2022-09-24T05:06:14;12.70;99.90
5118;DHT22;2578;51.622;7.046;2022-09-24T05:08:40;13.20;99.90
5118;DHT22;2578;51.622;7.046;2022-09-24T05:11:06;12.60;99.90
5118;DHT22;2578;51.622;7.046;2022-09-24T05:15:59;12.50;99.90
5118;DHT22;2578;51.622;7.046;2022-09-24T05:18:25;12.50;99.90
5118;DHT22;2578;51.622;7.046;2022-09-24T05:20:51;12.50;99.90
5118;DHT22;2578;51.622;7.046;2022-09-24T05:23:17;12.50;99.90
5118;DHT22;2578;51.622;7.046;2022-09-24T05:25:43;12.50;99.90
5118;DHT22;2578;51.622;7.046;2022-09-24T05:28:27;12.50;99.90
5118;DHT22;2578;51.622;7.046;2022-09-24T05:30:56;12.50;99.90
5118;DHT22;2578;51.622;7.046;2022-09-24T05:33:22;12.40;99.90
5118;DHT22;2578;51.622;7.046;2022-09-24T05:35:55;12.40;99.90
5118;DHT22;2578;51.622;7.046;2022-09-24T05:38:22;12.40;99.90
5118;DHT22;2578;51.622;7.046;2022-09-24T05:40:49;12.40;99.90
5118;DHT22;2578;51.622;7.046;2022-09-24T05:43:16;12.40;99.90
5118;DHT22;2578;51.622;7.046;2022-09-24T05:45:44;12.30;99.90
5118;DHT22;2578;51.622;7.046;2022-09-24T05:53:04;12.30;99.90
5118;DHT22;2578;51.622;7.046;2022-09-24T05:55:30;12.30;99.90
5118;DHT22;2578;51.622;7.046;2022-09-24T05:58:05;12.40;99.90
5118;DHT22;2578;51.622;7.046;2022-09-24T06:00:32;12.60;99.90
5118;DHT22;2578;51.622;7.046;2022-09-24T06:03:14;12.60;99.90
5118;DHT22;2578;51.622;7.046;2022-09-24T06:05:48;12.60;99.90
5118;DHT22;2578;51.622;7.046;2022-09-24T06:08:18;12.70;99.90
5118;DHT22;2578;51.622;7.046;2022-09-24T06:10:45;12.60;99.90
5118;DHT22;2578;51.622;7.046;2022-09-24T06:13:12;12.60;99.90
5118;DHT22;2578;51.622;7.046;2022-09-24T06:15:40;12.70;99.90
5118;DHT22;2578;51.622;7.046;2022-09-24T06:18:07;10.40;99.90
5118;DHT22;2578;51.622;7.046;2022-09-24T06:20:32;12.70;99.90
5118;DHT22;2578;51.622;7.046;2022-09-24T06:22:58;12.90;1.00
5118;DHT22;2578;51.622;7.046;2022-09-24T06:25:27;13.00;1.00
5118;DHT22;2578;51.622;7.046;2022-09-24T06:27:58;13.30;1.00
5118;DHT22;2578;51.622;7.046;2022-09-24T06:30:31;13.00;1.00
5118;DHT22;2578;51.622;7.046;2022-09-24T06:33:06;13.10;1.00
5118;DHT22;2578;51.622;7.046;2022-09-24T06:35:33;13.10;1.00
5118;DHT22;2578;51.622;7.046;2022-09-24T06:38:00;13.20;1.00
5118;DHT22;2578;51.622;7.046;2022-09-24T06:40:26;13.20;1.00
5118;DHT22;2578;51.622;7.046;2022-09-24T06:42:52;13.50;1.00
5118;DHT22;2578;51.622;7.046;2022-09-24T06:45:19;13.50;99.90
5118;DHT22;2578;51.622;7.046;2022-09-24T06:47:55;13.50;99.90
5118;DHT22;2578;51.622;7.046;2022-09-24T06:50:21;13.50;99.90
5118;DHT22;2578;51.622;7.046;2022-09-24T06:52:47;13.70;99.90
5118;DHT22;2578;51.622;7.046;2022-09-24T06:55:14;13.70;99.90
5118;DHT22;2578;51.622;7.046;2022-09-24T06:57:40;13.90;99.90
5118;DHT22;2578;51.622;7.046;2022-09-24T07:00:06;13.90;36.40
5118;DHT22;2578;51.622;7.046;2022-09-24T07:02:31;13.90;99.90
5118;DHT22;2578;51.622;7.046;2022-09-24T07:04:57;13.90;99.90
5118;DHT22;2578;51.622;7.046;2022-09-24T07:07:23;13.90;99.90
5118;DHT22;2578;51.622;7.046;2022-09-24T07:10:01;14.00;99.90
5118;DHT22;2578;51.622;7.046;2022-09-24T07:12:28;14.20;80.70
5118;DHT22;2578;51.622;7.046;2022-09-24T07:14:55;14.20;1.00
5118;DHT22;2578;51.622;7.046;2022-09-24T07:17:20;14.30;37.70
5118;DHT22;2578;51.622;7.046;2022-09-24T07:19:46;14.50;91.00
5118;DHT22;2578;51.622;7.046;2022-09-24T07:22:12;14.80;99.90
5118;DHT22;2578;51.622;7.046;2022-09-24T07:24:37;14.90;99.90
5118;DHT22;2578;51.622;7.046;2022-09-24T07:27:04;16.30;35.30
5118;DHT22;2578;51.622;7.046;2022-09-24T07:29:30;15.20;1.00
5118;DHT22;2578;51.622;7.046;2022-09-24T07:31:56;15.40;1.00
5118;DHT22;2578;51.622;7.046;2022-09-24T07:34:21;15.30;1.00
5118;DHT22;2578;51.622;7.046;2022-09-24T07:36:47;15.40;99.90
5118;DHT22;2578;51.622;7.046;2022-09-24T07:39:13;15.50;99.90
5118;DHT22;2578;51.622;7.046;2022-09-24T07:41:39;15.60;99.90
5118;DHT22;2578;51.622;7.046;2022-09-24T07:44:07;15.60;99.90
5118;DHT22;2578;51.622;7.046;2022-09-24T07:46:32;15.90;99.90
5118;DHT22;2578;51.622;7.046;2022-09-24T07:48:58;16.00;99.90
5118;DHT22;2578;51.622;7.046;2022-09-24T07:51:25;16.40;99.90
5118;DHT22;2578;51.622;7.046;2022-09-24T07:53:55;16.40;99.90
5118;DHT22;2578;51.622;7.046;2022-09-24T07:56:22;16.40;99.90
5118;DHT22;2578;51.622;7.046;2022-09-24T07:58:51;16.40;99.90
5118;DHT22;2578;51.622;7.046;2022-09-24T08:01:18;16.30;99.90
5118;DHT22;2578;51.622;7.046;2022-09-24T08:03:44;16.30;99.90
5118;DHT22;2578;51.622;7.046;2022-09-24T08:06:11;16.30;99.90
5118;DHT22;2578;51.622;7.046;2022-09-24T08:08:37;16.40;99.90
5118;DHT22;2578;51.622;7.046;2022-09-24T08:11:08;16.40;95.70
5118;DHT22;2578;51.622;7.046;2022-09-24T08:13:35;16.40;99.90
5118;DHT22;2578;51.622;7.046;2022-09-24T08:16:01;16.50;99.90
5118;DHT22;2578;51.622;7.046;2022-09-24T08:18:28;16.60;99.90
5118;DHT22;2578;51.622;7.046;2022-09-24T08:21:02;16.60;92.10
5118;DHT22;2578;51.622;7.046;2022-09-24T08:23:28;16.40;77.10
5118;DHT22;2578;51.622;7.046;2022-09-24T08:25:54;16.50;94.20
5118;DHT22;2578;51.622;7.046;2022-09-24T08:28:20;16.60;83.10
5118;DHT22;2578;51.622;7.046;2022-09-24T08:30:45;16.70;61.10
5118;DHT22;2578;51.622;7.046;2022-09-24T08:33:11;16.80;48.70
5118;DHT22;2578;51.622;7.046;2022-09-24T08:35:37;16.70;27.00
5118;DHT22;2578;51.622;7.046;2022-09-24T08:38:06;16.80;33.20
5118;DHT22;2578;51.622;7.046;2022-09-24T08:40:42;16.70;5.40
5118;DHT22;2578;51.622;7.046;2022-09-24T08:45:59;16.70;18.80
5118;DHT22;2578;51.622;7.046;2022-09-24T08:48:49;16.90;15.90
5118;DHT22;2578;51.622;7.046;2022-09-24T08:51:18;17.20;1.00
5118;DHT22;2578;51.622;7.046;2022-09-24T08:53:57;17.20;1.00
5118;DHT22;2578;51.622;7.046;2022-09-24T08:56:28;17.00;1.00
5118;DHT22;2578;51.622;7.046;2022-09-24T08:59:00;17.10;1.00
5118;DHT22;2578;51.622;7.046;2022-09-24T09:07:33;16.90;1.00
5118;DHT22;2578;51.622;7.046;2022-09-24T09:10:09;16.90;1.00
5118;DHT22;2578;51.622;7.046;2022-09-24T09:12:41;16.60;1.00
5118;DHT22;2578;51.622;7.046;2022-09-24T09:15:24;16.70;1.00
5118;DHT22;2578;51.622;7.046;2022-09-24T09:17:53;16.70;1.00
5118;DHT22;2578;51.622;7.046;2022-09-24T09:20:32;16.70;1.00
5118;DHT22;2578;51.622;7.046;2022-09-24T09:23:20;16.80;1.00
5118;DHT22;2578;51.622;7.046;2022-09-24T09:25:51;16.80;1.00
5118;DHT22;2578;51.622;7.046;2022-09-24T09:28:19;16.70;1.00
5118;DHT22;2578;51.622;7.046;2022-09-24T09:33:32;16.40;1.00
5118;DHT22;2578;51.622;7.046;2022-09-24T09:38:49;16.50;1.00
5118;DHT22;2578;51.622;7.046;2022-09-24T09:44:00;17.10;1.00
5118;DHT22;2578;51.622;7.046;2022-09-24T09:46:36;17.20;1.00
5118;DHT22;2578;51.622;7.046;2022-09-24T09:49:06;17.30;1.00
5118;DHT22;2578;51.622;7.046;2022-09-24T09:51:40;17.60;1.00
5118;DHT22;2578;51.622;7.046;2022-09-24T09:54:07;17.60;1.00
5118;DHT22;2578;51.622;7.046;2022-09-24T09:56:35;20.10;1.00
5118;DHT22;2578;51.622;7.046;2022-09-24T10:01:40;17.40;1.00
5118;DHT22;2578;51.622;7.046;2022-09-24T10:04:25;17.50;1.00
5118;DHT22;2578;51.622;7.046;2022-09-24T10:07:09;17.60;1.00
5118;DHT22;2578;51.622;7.046;2022-09-24T10:09:36;17.70;1.00
5118;DHT22;2578;51.622;7.046;2022-09-24T10:12:13;17.90;1.00
5118;DHT22;2578;51.622;7.046;2022-09-24T10:14:40;17.80;1.00
5118;DHT22;2578;51.622;7.046;2022-09-24T10:17:09;17.60;1.00
5118;DHT22;2578;51.622;7.046;2022-09-24T10:19:35;17.70;1.00
5118;DHT22;2578;51.622;7.046;2022-09-24T10:22:09;18.20;1.00
5118;DHT22;2578;51.622;7.046;2022-09-24T10:24:41;18.30;1.00
5118;DHT22;2578;51.622;7.046;2022-09-24T10:27:51;18.10;1.00
5118;DHT22;2578;51.622;7.046;2022-09-24T10:30:15;18.20;1.00
5118;DHT22;2578;51.622;7.046;2022-09-24T10:33:03;18.10;1.00
5118;DHT22;2578;51.622;7.046;2022-09-24T10:37:58;17.80;1.00
5118;DHT22;2578;51.622;7.046;2022-09-24T10:40:27;17.40;1.00
5118;DHT22;2578;51.622;7.046;2022-09-24T10:43:00;17.10;1.00
5118;DHT22;2578;51.622;7.046;2022-09-24T10:45:44;17.10;1.00
5118;DHT22;2578;51.622;7.046;2022-09-24T10:48:24;17.10;1.00
5118;DHT22;2578;51.622;7.046;2022-09-24T10:56:42;16.80;1.00
5118;DHT22;2578;51.622;7.046;2022-09-24T10:59:39;16.90;1.00
5118;DHT22;2578;51.622;7.046;2022-09-24T11:05:10;17.30;1.00
5118;DHT22;2578;51.622;7.046;2022-09-24T11:24:49;19.80;1.00
5118;DHT22;2578;51.622;7.046;2022-09-24T11:30:11;16.30;1.00
5118;DHT22;2578;51.622;7.046;2022-09-24T11:46:46;16.40;1.00
5118;DHT22;2578;51.622;7.046;2022-09-24T11:52:31;16.30;1.00
5118;DHT22;2578;51.622;7.046;2022-09-24T11:57:53;16.30;4.50
5118;DHT22;2578;51.622;7.046;2022-09-24T12:00:22;16.30;1.00
5118;DHT22;2578;51.622;7.046;2022-09-24T12:03:15;16.10;1.00
5118;DHT22;2578;51.622;7.046;2022-09-24T12:05:50;16.10;8.50
5118;DHT22;2578;51.622;7.046;2022-09-24T12:09:13;15.90;2.30
5118;DHT22;2578;51.622;7.046;2022-09-24T12:14:15;16.00;14.80
5118;DHT22;2578;51.622;7.046;2022-09-24T12:16:44;16.00;25.10
5118;DHT22;2578;51.622;7.046;2022-09-24T12:21:42;16.10;2.70
5118;DHT22;2578;51.622;7.046;2022-09-24T12:24:29;16.20;10.10
5118;DHT22;2578;51.622;7.046;2022-09-24T12:27:00;16.30;7.80
5118;DHT22;2578;51.622;7.046;2022-09-24T12:29:36;16.50;1.00
5118;DHT22;2578;51.622;7.046;2022-09-24T12:38:27;16.90;1.00
5118;DHT22;2578;51.622;7.046;2022-09-24T12:41:15;16.90;1.00
5118;DHT22;2578;51.622;7.046;2022-09-24T12:46:28;16.60;1.00
5118;DHT22;2578;51.622;7.046;2022-09-24T12:48:55;16.50;1.00
5118;DHT22;2578;51.622;7.046;2022-09-24T12:51:21;16.50;1.00
5118;DHT22;2578;51.622;7.046;2022-09-24T12:53:57;16.50;1.00
5118;DHT22;2578;51.622;7.046;2022-09-24T12:56:25;16.50;1.00
5118;DHT22;2578;51.622;7.046;2022-09-24T12:58:52;16.50;1.00
5118;DHT22;2578;51.622;7.046;2022-09-24T13:04:25;16.30;1.00
5118;DHT22;2578;51.622;7.046;2022-09-24T13:06:51;16.30;1.00
5118;DHT22;2578;51.622;7.046;2022-09-24T13:09:38;16.20;1.00
5118;DHT22;2578;51.622;7.046;2022-09-24T13:12:18;16.20;1.00
5118;DHT22;2578;51.622;7.046;2022-09-24T13:18:20;16.40;1.90
5118;DHT22;2578;51.622;7.046;2022-09-24T13:20:57;16.30;1.00
5118;DHT22;2578;51.622;7.046;2022-09-24T13:28:23;16.20;1.00
5118;DHT22;2578;51.622;7.046;2022-09-24T13:31:07;16.20;1.00
5118;DHT22;2578;51.622;7.046;2022-09-24T13:33:41;16.40;1.00
5118;DHT22;2578;51.622;7.046;2022-09-24T13:36:22;16.40;1.00
5118;DHT22;2578;51.622;7.046;2022-09-24T13:49:44;16.90;1.00
5118;DHT22;2578;51.622;7.046;2022-09-24T13:54:56;16.80;1.00
5118;DHT22;2578;51.622;7.046;2022-09-24T13:57:28;16.80;1.00
5118;DHT22;2578;51.622;7.046;2022-09-24T14:00:16;16.80;1.00
5118;DHT22;2578;51.622;7.046;2022-09-24T14:05:29;16.60;1.00
5118;DHT22;2578;51.622;7.046;2022-09-24T14:08:03;16.60;1.00
5118;DHT22;2578;51.622;7.046;2022-09-24T14:10:30;16.60;1.00
5118;DHT22;2578;51.622;7.046;2022-09-24T14:13:15;16.70;1.00
5118;DHT22;2578;51.622;7.046;2022-09-24T14:18:19;16.70;1.00
5118;DHT22;2578;51.622;7.046;2022-09-24T14:21:06;16.70;1.00
5118;DHT22;2578;51.622;7.046;2022-09-24T14:26:07;16.70;1.00
5118;DHT22;2578;51.622;7.046;2022-09-24T14:28:34;16.70;1.00
5118;DHT22;2578;51.622;7.046;2022-09-24T14:31:00;16.70;1.00
5118;DHT22;2578;51.622;7.046;2022-09-24T14:33:29;16.80;1.00
5118;DHT22;2578;51.622;7.046;2022-09-24T14:35:57;16.80;1.00
5118;DHT22;2578;51.622;7.046;2022-09-24T14:38:27;16.80;1.00
5118;DHT22;2578;51.622;7.046;2022-09-24T14:41:02;15.20;1.00
5118;DHT22;2578;51.622;7.046;2022-09-24T14:43:37;16.70;1.00
5118;DHT22;2578;51.622;7.046;2022-09-24T14:48:45;16.60;1.00
5118;DHT22;2578;51.622;7.046;2022-09-24T14:51:25;16.60;1.00
5118;DHT22;2578;51.622;7.046;2022-09-24T14:56:54;16.60;1.00
5118;DHT22;2578;51.622;7.046;2022-09-24T14:59:34;16.50;1.00
5118;DHT22;2578;51.622;7.046;2022-09-24T15:02:17;16.50;1.00
5118;DHT22;2578;51.622;7.046;2022-09-24T15:04:49;16.50;1.00
5118;DHT22;2578;51.622;7.046;2022-09-24T15:07:27;16.60;1.00
5118;DHT22;2578;51.622;7.046;2022-09-24T15:09:56;16.60;1.00
5118;DHT22;2578;51.622;7.046;2022-09-24T15:12:36;16.60;1.00
5118;DHT22;2578;51.622;7.046;2022-09-24T15:15:24;16.60;1.00
5118;DHT22;2578;51.622;7.046;2022-09-24T15:17:51;16.60;1.00
5118;DHT22;2578;51.622;7.046;2022-09-24T15:20:16;16.60;1.00
5118;DHT22;2578;51.622;7.046;2022-09-24T15:22:42;16.60;1.00
5118;DHT22;2578;51.622;7.046;2022-09-24T15:25:13;16.70;1.00
5118;DHT22;2578;51.622;7.046;2022-09-24T15:27:40;16.70;1.00
5118;DHT22;2578;51.622;7.046;2022-09-24T15:30:11;16.70;1.00
5118;DHT22;2578;51.622;7.046;2022-09-24T15:32:42;16.70;1.00
5118;DHT22;2578;51.622;7.046;2022-09-24T15:35:08;16.60;1.00
5118;DHT22;2578;51.622;7.046;2022-09-24T15:37:37;16.60;1.00
5118;DHT22;2578;51.622;7.046;2022-09-24T15:40:29;16.50;1.00
5118;DHT22;2578;51.622;7.046;2022-09-24T15:42:58;16.50;1.00
5118;DHT22;2578;51.622;7.046;2022-09-24T15:45:24;16.40;1.00
5118;DHT22;2578;51.622;7.046;2022-09-24T15:47:51;16.40;1.00
5118;DHT22;2578;51.622;7.046;2022-09-24T15:50:19;16.40;1.00
5118;DHT22;2578;51.622;7.046;2022-09-24T15:52:57;16.20;1.00
5118;DHT22;2578;51.622;7.046;2022-09-24T15:55:24;16.20;1.00
5118;DHT22;2578;51.622;7.046;2022-09-24T15:57:49;16.10;1.00
5118;DHT22;2578;51.622;7.046;2022-09-24T16:00:18;16.10;1.00
5118;DHT22;2578;51.622;7.046;2022-09-24T16:02:49;16.00;1.00
5118;DHT22;2578;51.622;7.046;2022-09-24T16:05:15;16.00;1.00
5118;DHT22;2578;51.622;7.046;2022-09-24T16:07:41;16.00;1.00
5118;DHT22;2578;51.622;7.046;2022-09-24T16:10:08;15.90;1.00
5118;DHT22;2578;51.622;7.046;2022-09-24T16:12:35;15.90;1.00
5118;DHT22;2578;51.622;7.046;2022-09-24T16:15:01;15.80;1.00
5118;DHT22;2578;51.622;7.046;2022-09-24T16:17:27;15.80;1.00
5118;DHT22;2578;51.622;7.046;2022-09-24T16:19:53;15.80;1.00
5118;DHT22;2578;51.622;7.046;2022-09-24T16:22:19;15.70;1.00
5118;DHT22;2578;51.622;7.046;2022-09-24T16:24:44;15.70;1.00
5118;DHT22;2578;51.622;7.046;2022-09-24T16:27:10;15.70;1.00
5118;DHT22;2578;51.622;7.046;2022-09-24T16:29:36;15.70;1.00
5118;DHT22;2578;51.622;7.046;2022-09-24T16:32:02;18.00;1.00
5118;DHT22;2578;51.622;7.046;2022-09-24T16:34:28;15.60;1.00
5118;DHT22;2578;51.622;7.046;2022-09-24T16:36:54;15.60;1.00
5118;DHT22;2578;51.622;7.046;2022-09-24T16:39:19;15.50;1.00
5118;DHT22;2578;51.622;7.046;2022-09-24T16:41:49;15.40;1.00
5118;DHT22;2578;51.622;7.046;2022-09-24T16:44:15;15.50;1.00
5118;DHT22;2578;51.622;7.046;2022-09-24T16:46:42;15.50;1.00
5118;DHT22;2578;51.622;7.046;2022-09-24T16:49:08;15.40;1.00
5118;DHT22;2578;51.622;7.046;2022-09-24T16:51:34;15.30;1.00
5118;DHT22;2578;51.622;7.046;2022-09-24T16:56:26;15.30;1.00
5118;DHT22;2578;51.622;7.046;2022-09-24T16:58:52;15.30;1.00
5118;DHT22;2578;51.622;7.046;2022-09-24T17:01:20;15.20;1.00
5118;DHT22;2578;51.622;7.046;2022-09-24T17:03:50;15.20;1.00
5118;DHT22;2578;51.622;7.046;2022-09-24T17:06:18;15.20;1.00
5118;DHT22;2578;51.622;7.046;2022-09-24T17:08:44;15.10;1.00
5118;DHT22;2578;51.622;7.046;2022-09-24T17:11:28;15.10;1.00
5118;DHT22;2578;51.622;7.046;2022-09-24T17:13:54;15.10;1.00
5118;DHT22;2578;51.622;7.046;2022-09-24T17:16:20;15.00;11.90
5118;DHT22;2578;51.622;7.046;2022-09-24T17:18:47;15.00;15.40
5118;DHT22;2578;51.622;7.046;2022-09-24T17:21:13;14.90;16.40
5118;DHT22;2578;51.622;7.046;2022-09-24T17:23:39;14.90;22.50
5118;DHT22;2578;51.622;7.046;2022-09-24T17:26:08;14.90;22.40
5118;DHT22;2578;51.622;7.046;2022-09-24T17:28:35;14.80;37.40
5118;DHT22;2578;51.622;7.046;2022-09-24T17:31:02;14.80;48.70
5118;DHT22;2578;51.622;7.046;2022-09-24T17:33:28;14.70;45.00
5118;DHT22;2578;51.622;7.046;2022-09-24T17:35:56;14.70;50.90
5118;DHT22;2578;51.622;7.046;2022-09-24T17:38:22;14.60;47.10
5118;DHT22;2578;51.622;7.046;2022-09-24T17:40:56;14.60;51.70
5118;DHT22;2578;51.622;7.046;2022-09-24T17:43:22;14.60;42.80
5118;DHT22;2578;51.622;7.046;2022-09-24T17:46:14;14.60;55.20
5118;DHT22;2578;51.622;7.046;2022-09-24T17:48:45;14.50;68.70
5118;DHT22;2578;51.622;7.046;2022-09-24T17:51:14;14.40;70.00
5118;DHT22;2578;51.622;7.046;2022-09-24T17:53:39;14.50;81.10
5118;DHT22;2578;51.622;7.046;2022-09-24T17:56:08;14.40;79.40
5118;DHT22;2578;51.622;7.046;2022-09-24T17:58:39;14.40;84.70
5118;DHT22;2578;51.622;7.046;2022-09-24T18:06:04;14.40;78.00
5118;DHT22;2578;51.622;7.046;2022-09-24T18:08:30;14.30;93.10
5118;DHT22;2578;51.622;7.046;2022-09-24T18:11:07;14.30;93.30
5118;DHT22;2578;51.622;7.046;2022-09-24T18:13:33;14.30;83.80
5118;DHT22;2578;51.622;7.046;2022-09-24T18:16:07;14.40;92.70
5118;DHT22;2578;51.622;7.046;2022-09-24T18:18:33;14.30;93.00
5118;DHT22;2578;51.622;7.046;2022-09-24T18:21:00;14.30;94.40
5118;DHT22;2578;51.622;7.046;2022-09-24T18:23:27;14.20;88.30
5118;DHT22;2578;51.622;7.046;2022-09-24T18:25:53;14.20;96.00
5118;DHT22;2578;51.622;7.046;2022-09-24T18:28:20;14.20;96.40
5118;DHT22;2578;51.622;7.046;2022-09-24T18:30:46;14.20;96.00
5118;DHT22;2578;51.622;7.046;2022-09-24T18:33:12;14.20;93.30
5118;DHT22;2578;51.622;7.046;2022-09-24T18:35:37;14.20;99.90
5118;DHT22;2578;51.622;7.046;2022-09-24T18:38:03;14.10;99.90
5118;DHT22;2578;51.622;7.046;2022-09-24T18:40:28;14.10;99.90
5118;DHT22;2578;51.622;7.046;2022-09-24T18:45:21;14.10;99.90
5118;DHT22;2578;51.622;7.046;2022-09-24T18:47:48;14.10;99.90
5118;DHT22;2578;51.622;7.046;2022-09-24T18:50:14;14.10;99.90
5118;DHT22;2578;51.622;7.046;2022-09-24T18:52:40;14.10;99.90
5118;DHT22;2578;51.622;7.046;2022-09-24T18:55:06;14.10;99.90
5118;DHT22;2578;51.622;7.046;2022-09-24T18:57:32;14.00;99.90
5118;DHT22;2578;51.622;7.046;2022-09-24T18:59:58;14.00;99.90
5118;DHT22;2578;51.622;7.046;2022-09-24T19:02:23;14.00;99.90
5118;DHT22;2578;51.622;7.046;2022-09-24T19:04:51;14.00;99.90
5118;DHT22;2578;51.622;7.046;2022-09-24T19:07:16;14.00;99.90
5118;DHT22;2578;51.622;7.046;2022-09-24T19:09:42;14.20;99.90
5118;DHT22;2578;51.622;7.046;2022-09-24T19:12:08;13.90;99.90
5118;DHT22;2578;51.622;7.046;2022-09-24T19:14:34;15.50;99.90
5118;DHT22;2578;51.622;7.046;2022-09-24T19:17:01;13.90;99.90